sensor_id;sensor_type;location;lat;lon;timestamp;temperature;humidity
25108;DHT22;13090;53.422;7.670;2023-01-16T00:00:42;7.80;91.20
25108;DHT22;13090;53.422;7.670;2023-01-16T00:05:44;7.80;91.10
25108;DHT22;13090;53.422;7.670;2023-01-16T00:10:49;7.80;91.10
25108;DHT22;13090;53.422;7.670;2023-01-16T00:15:53;7.80;91.00
25108;DHT22;13090;53.422;7.670;2023-01-16T00:20:55;7.80;91.00
25108;DHT22;13090;53.422;7.670;2023-01-16T00:25:57;7.80;91.00
25108;DHT22;13090;53.422;7.670;2023-01-16T00:31:01;7.70;91.00
25108;DHT22;13090;53.422;7.670;2023-01-16T00:36:04;7.70;91.00
25108;DHT22;13090;53.422;7.670;2023-01-16T00:41:06;7.80;91.00
25108;DHT22;13090;53.422;7.670;2023-01-16T00:46:12;7.80;91.00
25108;DHT22;13090;53.422;7.670;2023-01-16T00:51:16;7.70;91.00
25108;DHT22;13090;53.422;7.670;2023-01-16T00:56:18;7.70;90.90
25108;DHT22;13090;53.422;7.670;2023-01-16T01:01:21;7.80;90.90
25108;DHT22;13090;53.422;7.670;2023-01-16T01:06:24;7.70;90.90
25108;DHT22;13090;53.422;7.670;2023-01-16T01:11:26;7.80;90.90
25108;DHT22;13090;53.422;7.670;2023-01-16T01:16:29;7.80;90.90
25108;DHT22;13090;53.422;7.670;2023-01-16T01:21:32;7.80;90.90
25108;DHT22;13090;53.422;7.670;2023-01-16T01:26:34;7.80;91.00
25108;DHT22;13090;53.422;7.670;2023-01-16T01:31:37;7.70;90.90
25108;DHT22;13090;53.422;7.670;2023-01-16T01:36:39;7.70;90.90
25108;DHT22;13090;53.422;7.670;2023-01-16T01:41:42;7.70;90.90
25108;DHT22;13090;53.422;7.670;2023-01-16T01:46:47;7.70;90.90
25108;DHT22;13090;53.422;7.670;2023-01-16T01:51:49;7.60;90.80
25108;DHT22;13090;53.422;7.670;2023-01-16T01:56:56;7.60;90.90
25108;DHT22;13090;53.422;7.670;2023-01-16T02:02:02;7.60;90.90
25108;DHT22;13090;53.422;7.670;2023-01-16T02:07:07;7.60;90.90
25108;DHT22;13090;53.422;7.670;2023-01-16T02:12:11;7.50;90.80
25108;DHT22;13090;53.422;7.670;2023-01-16T02:17:17;7.50;90.90
25108;DHT22;13090;53.422;7.670;2023-01-16T02:22:53;7.50;90.90
25108;DHT22;13090;53.422;7.670;2023-01-16T02:28:32;7.50;90.90
25108;DHT22;13090;53.422;7.670;2023-01-16T02:33:54;7.50;90.90
25108;DHT22;13090;53.422;7.670;2023-01-16T02:39:06;7.50;90.90
25108;DHT22;13090;53.422;7.670;2023-01-16T02:44:16;7.40;90.90
25108;DHT22;13090;53.422;7.670;2023-01-16T02:49:43;7.40;90.90
25108;DHT22;13090;53.422;7.670;2023-01-16T02:54:52;7.40;90.90
25108;DHT22;13090;53.422;7.670;2023-01-16T02:59:56;7.30;90.80
25108;DHT22;13090;53.422;7.670;2023-01-16T03:05:00;7.20;90.90
25108;DHT22;13090;53.422;7.670;2023-01-16T03:10:23;7.20;91.00
25108;DHT22;13090;53.422;7.670;2023-01-16T03:15:34;7.20;91.10
25108;DHT22;13090;53.422;7.670;2023-01-16T03:20:49;7.20;91.10
25108;DHT22;13090;53.422;7.670;2023-01-16T03:25:56;7.30;91.10
25108;DHT22;13090;53.422;7.670;2023-01-16T03:31:05;7.30;91.10
25108;DHT22;13090;53.422;7.670;2023-01-16T03:36:14;7.30;91.10
25108;DHT22;13090;53.422;7.670;2023-01-16T03:41:21;7.40;91.10
25108;DHT22;13090;53.422;7.670;2023-01-16T03:46:27;7.40;91.10
25108;DHT22;13090;53.422;7.670;2023-01-16T03:51:35;7.40;91.10
25108;DHT22;13090;53.422;7.670;2023-01-16T03:56:44;7.40;91.10
25108;DHT22;13090;53.422;7.670;2023-01-16T04:01:54;7.40;91.10
25108;DHT22;13090;53.422;7.670;2023-01-16T04:07:01;7.40;91.10
25108;DHT22;13090;53.422;7.670;2023-01-16T04:12:06;7.40;91.10
25108;DHT22;13090;53.422;7.670;2023-01-16T04:17:09;7.50;91.10
25108;DHT22;13090;53.422;7.670;2023-01-16T04:22:21;7.40;91.00
25108;DHT22;13090;53.422;7.670;2023-01-16T04:27:24;7.50;91.00
25108;DHT22;13090;53.422;7.670;2023-01-16T04:32:26;7.40;91.00
25108;DHT22;13090;53.422;7.670;2023-01-16T04:37:30;7.40;91.00
25108;DHT22;13090;53.422;7.670;2023-01-16T04:42:32;7.40;91.00
25108;DHT22;13090;53.422;7.670;2023-01-16T04:47:34;7.40;91.00
25108;DHT22;13090;53.422;7.670;2023-01-16T04:52:38;7.40;91.00
25108;DHT22;13090;53.422;7.670;2023-01-16T04:57:41;7.40;91.00
25108;DHT22;13090;53.422;7.670;2023-01-16T05:02:43;7.40;91.00
25108;DHT22;13090;53.422;7.670;2023-01-16T05:07:47;7.40;91.00
25108;DHT22;13090;53.422;7.670;2023-01-16T05:12:49;7.30;90.90
25108;DHT22;13090;53.422;7.670;2023-01-16T05:17:51;7.30;90.90
25108;DHT22;13090;53.422;7.670;2023-01-16T05:22:55;7.30;91.00
25108;DHT22;13090;53.422;7.670;2023-01-16T05:27:57;7.30;91.00
25108;DHT22;13090;53.422;7.670;2023-01-16T05:32:59;7.20;91.00
25108;DHT22;13090;53.422;7.670;2023-01-16T05:38:02;7.20;91.10
25108;DHT22;13090;53.422;7.670;2023-01-16T05:43:05;7.20;91.10
25108;DHT22;13090;53.422;7.670;2023-01-16T05:48:07;7.20;91.10
25108;DHT22;13090;53.422;7.670;2023-01-16T05:53:11;7.20;91.20
25108;DHT22;13090;53.422;7.670;2023-01-16T05:58:13;7.20;91.20
25108;DHT22;13090;53.422;7.670;2023-01-16T06:03:17;7.20;91.20
25108;DHT22;13090;53.422;7.670;2023-01-16T06:08:20;7.20;91.20
25108;DHT22;13090;53.422;7.670;2023-01-16T06:13:23;7.20;91.20
25108;DHT22;13090;53.422;7.670;2023-01-16T06:18:25;7.20;91.20
25108;DHT22;13090;53.422;7.670;2023-01-16T06:23:28;7.20;91.20
25108;DHT22;13090;53.422;7.670;2023-01-16T06:28:31;7.20;91.20
25108;DHT22;13090;53.422;7.670;2023-01-16T06:33:33;7.20;91.20
25108;DHT22;13090;53.422;7.670;2023-01-16T06:38:37;7.20;91.30
25108;DHT22;13090;53.422;7.670;2023-01-16T06:43:42;7.20;91.30
25108;DHT22;13090;53.422;7.670;2023-01-16T06:48:44;7.10;91.30
25108;DHT22;13090;53.422;7.670;2023-01-16T06:53:47;7.10;91.30
25108;DHT22;13090;53.422;7.670;2023-01-16T06:58:50;7.10;91.30
25108;DHT22;13090;53.422;7.670;2023-01-16T07:03:55;7.10;91.30
25108;DHT22;13090;53.422;7.670;2023-01-16T07:09:02;7.10;91.20
25108;DHT22;13090;53.422;7.670;2023-01-16T07:14:04;7.00;91.20
25108;DHT22;13090;53.422;7.670;2023-01-16T07:19:08;7.00;91.20
25108;DHT22;13090;53.422;7.670;2023-01-16T07:24:17;7.00;91.20
25108;DHT22;13090;53.422;7.670;2023-01-16T07:29:20;7.00;91.30
25108;DHT22;13090;53.422;7.670;2023-01-16T07:34:23;7.00;91.30
25108;DHT22;13090;53.422;7.670;2023-01-16T07:39:26;7.00;91.30
25108;DHT22;13090;53.422;7.670;2023-01-16T07:44:28;6.90;91.50
25108;DHT22;13090;53.422;7.670;2023-01-16T07:49:30;6.90;91.30
25108;DHT22;13090;53.422;7.670;2023-01-16T07:54:34;6.90;91.20
25108;DHT22;13090;53.422;7.670;2023-01-16T07:59:36;6.90;91.20
25108;DHT22;13090;53.422;7.670;2023-01-16T08:04:38;6.90;91.30
25108;DHT22;13090;53.422;7.670;2023-01-16T08:09:42;6.90;91.30
25108;DHT22;13090;53.422;7.670;2023-01-16T08:14:44;6.80;91.20
25108;DHT22;13090;53.422;7.670;2023-01-16T08:19:46;6.80;91.20
25108;DHT22;13090;53.422;7.670;2023-01-16T08:24:50;6.70;91.40
25108;DHT22;13090;53.422;7.670;2023-01-16T08:29:52;6.70;91.40
25108;DHT22;13090;53.422;7.670;2023-01-16T08:34:54;6.60;91.60
25108;DHT22;13090;53.422;7.670;2023-01-16T08:39:58;6.60;91.70
25108;DHT22;13090;53.422;7.670;2023-01-16T08:45:00;6.60;91.70
25108;DHT22;13090;53.422;7.670;2023-01-16T08:50:05;6.60;91.80
25108;DHT22;13090;53.422;7.670;2023-01-16T08:55:09;6.60;91.90
25108;DHT22;13090;53.422;7.670;2023-01-16T09:00:11;6.60;91.90
25108;DHT22;13090;53.422;7.670;2023-01-16T09:05:14;6.60;91.90
25108;DHT22;13090;53.422;7.670;2023-01-16T09:10:18;6.60;91.90
25108;DHT22;13090;53.422;7.670;2023-01-16T09:15:20;6.60;91.90
25108;DHT22;13090;53.422;7.670;2023-01-16T09:20:22;6.60;91.90
25108;DHT22;13090;53.422;7.670;2023-01-16T09:25:28;6.60;91.90
25108;DHT22;13090;53.422;7.670;2023-01-16T09:30:31;6.70;92.00
25108;DHT22;13090;53.422;7.670;2023-01-16T09:35:33;6.80;92.00
25108;DHT22;13090;53.422;7.670;2023-01-16T09:40:37;6.90;91.60
25108;DHT22;13090;53.422;7.670;2023-01-16T09:45:40;7.10;91.20
25108;DHT22;13090;53.422;7.670;2023-01-16T09:50:49;7.10;91.10
25108;DHT22;13090;53.422;7.670;2023-01-16T09:55:54;7.10;90.80
25108;DHT22;13090;53.422;7.670;2023-01-16T10:00:58;7.20;91.00
25108;DHT22;13090;53.422;7.670;2023-01-16T10:06:06;7.20;90.60
25108;DHT22;13090;53.422;7.670;2023-01-16T10:11:19;7.20;90.60
25108;DHT22;13090;53.422;7.670;2023-01-16T10:16:31;7.20;90.60
25108;DHT22;13090;53.422;7.670;2023-01-16T10:21:51;7.20;90.60
25108;DHT22;13090;53.422;7.670;2023-01-16T10:27:06;7.30;90.60
25108;DHT22;13090;53.422;7.670;2023-01-16T10:32:16;7.30;90.40
25108;DHT22;13090;53.422;7.670;2023-01-16T10:37:22;7.30;90.20
25108;DHT22;13090;53.422;7.670;2023-01-16T10:42:29;7.30;90.30
25108;DHT22;13090;53.422;7.670;2023-01-16T10:47:34;7.30;90.10
25108;DHT22;13090;53.422;7.670;2023-01-16T10:52:37;7.30;90.30
25108;DHT22;13090;53.422;7.670;2023-01-16T10:57:44;7.30;90.20
25108;DHT22;13090;53.422;7.670;2023-01-16T11:02:48;7.20;90.00
25108;DHT22;13090;53.422;7.670;2023-01-16T11:07:53;7.30;90.50
25108;DHT22;13090;53.422;7.670;2023-01-16T11:12:57;7.30;90.50
25108;DHT22;13090;53.422;7.670;2023-01-16T11:17:59;7.30;90.20
25108;DHT22;13090;53.422;7.670;2023-01-16T11:23:05;7.30;90.10
25108;DHT22;13090;53.422;7.670;2023-01-16T11:28:18;7.30;90.10
25108;DHT22;13090;53.422;7.670;2023-01-16T11:33:24;7.20;89.80
25108;DHT22;13090;53.422;7.670;2023-01-16T11:38:29;7.30;90.30
25108;DHT22;13090;53.422;7.670;2023-01-16T11:43:36;7.20;90.50
25108;DHT22;13090;53.422;7.670;2023-01-16T11:48:40;7.10;90.70
25108;DHT22;13090;53.422;7.670;2023-01-16T11:53:44;6.90;90.90
25108;DHT22;13090;53.422;7.670;2023-01-16T11:58:56;6.80;91.00
25108;DHT22;13090;53.422;7.670;2023-01-16T12:04:06;6.70;91.50
25108;DHT22;13090;53.422;7.670;2023-01-16T12:14:54;6.50;91.70
25108;DHT22;13090;53.422;7.670;2023-01-16T12:20:04;6.40;92.20
25108;DHT22;13090;53.422;7.670;2023-01-16T12:25:23;6.30;92.70
25108;DHT22;13090;53.422;7.670;2023-01-16T12:30:41;6.30;92.70
25108;DHT22;13090;53.422;7.670;2023-01-16T12:35:52;6.30;93.00
25108;DHT22;13090;53.422;7.670;2023-01-16T12:41:17;6.30;93.10
25108;DHT22;13090;53.422;7.670;2023-01-16T12:46:27;6.30;93.30
25108;DHT22;13090;53.422;7.670;2023-01-16T12:51:44;6.30;93.30
25108;DHT22;13090;53.422;7.670;2023-01-16T12:57:03;6.30;93.30
25108;DHT22;13090;53.422;7.670;2023-01-16T13:02:19;6.30;93.30
25108;DHT22;13090;53.422;7.670;2023-01-16T13:07:27;6.30;93.10
25108;DHT22;13090;53.422;7.670;2023-01-16T13:12:35;6.40;93.20
25108;DHT22;13090;53.422;7.670;2023-01-16T13:17:44;6.40;93.00
25108;DHT22;13090;53.422;7.670;2023-01-16T13:22:50;6.40;93.00
25108;DHT22;13090;53.422;7.670;2023-01-16T13:27:57;6.50;92.90
25108;DHT22;13090;53.422;7.670;2023-01-16T13:33:04;6.50;92.80
25108;DHT22;13090;53.422;7.670;2023-01-16T13:38:28;6.50;92.80
25108;DHT22;13090;53.422;7.670;2023-01-16T13:43:38;6.50;92.90
25108;DHT22;13090;53.422;7.670;2023-01-16T13:48:43;6.50;92.80
25108;DHT22;13090;53.422;7.670;2023-01-16T13:53:54;6.60;93.10
25108;DHT22;13090;53.422;7.670;2023-01-16T13:58:59;6.60;93.10
25108;DHT22;13090;53.422;7.670;2023-01-16T14:04:28;6.60;92.90
25108;DHT22;13090;53.422;7.670;2023-01-16T14:09:30;6.70;93.10
25108;DHT22;13090;53.422;7.670;2023-01-16T14:14:49;6.70;93.10
25108;DHT22;13090;53.422;7.670;2023-01-16T14:19:56;6.70;93.60
25108;DHT22;13090;53.422;7.670;2023-01-16T14:24:59;6.80;93.10
25108;DHT22;13090;53.422;7.670;2023-01-16T14:30:03;6.80;93.00
25108;DHT22;13090;53.422;7.670;2023-01-16T14:35:14;6.80;92.90
25108;DHT22;13090;53.422;7.670;2023-01-16T14:40:20;6.90;93.10
25108;DHT22;13090;53.422;7.670;2023-01-16T14:45:28;6.90;92.90
25108;DHT22;13090;53.422;7.670;2023-01-16T14:50:50;6.90;92.90
25108;DHT22;13090;53.422;7.670;2023-01-16T14:55:57;6.90;92.90
25108;DHT22;13090;53.422;7.670;2023-01-16T15:01:02;6.90;92.80
25108;DHT22;13090;53.422;7.670;2023-01-16T15:06:09;7.00;92.80
25108;DHT22;13090;53.422;7.670;2023-01-16T15:11:20;7.00;92.80
25108;DHT22;13090;53.422;7.670;2023-01-16T15:16:24;7.00;92.70
25108;DHT22;13090;53.422;7.670;2023-01-16T15:21:28;7.00;92.70
25108;DHT22;13090;53.422;7.670;2023-01-16T15:26:45;6.90;92.70
25108;DHT22;13090;53.422;7.670;2023-01-16T15:31:56;6.90;92.70
25108;DHT22;13090;53.422;7.670;2023-01-16T15:37:05;6.90;92.70
25108;DHT22;13090;53.422;7.670;2023-01-16T15:42:16;6.90;92.70
25108;DHT22;13090;53.422;7.670;2023-01-16T15:47:38;6.90;92.70
25108;DHT22;13090;53.422;7.670;2023-01-16T15:52:45;6.90;92.80
25108;DHT22;13090;53.422;7.670;2023-01-16T15:57:50;6.90;92.80
25108;DHT22;13090;53.422;7.670;2023-01-16T16:02:58;6.80;92.70
25108;DHT22;13090;53.422;7.670;2023-01-16T16:08:04;6.80;92.70
25108;DHT22;13090;53.422;7.670;2023-01-16T16:13:12;6.80;92.70
25108;DHT22;13090;53.422;7.670;2023-01-16T16:18:19;6.80;92.60
25108;DHT22;13090;53.422;7.670;2023-01-16T16:23:25;6.80;92.60
25108;DHT22;13090;53.422;7.670;2023-01-16T16:28:33;6.90;92.70
25108;DHT22;13090;53.422;7.670;2023-01-16T16:33:38;6.80;92.60
25108;DHT22;13090;53.422;7.670;2023-01-16T16:38:46;6.80;92.60
25108;DHT22;13090;53.422;7.670;2023-01-16T16:43:55;6.80;92.70
25108;DHT22;13090;53.422;7.670;2023-01-16T16:48:59;6.80;92.70
25108;DHT22;13090;53.422;7.670;2023-01-16T16:54:26;6.70;92.80
25108;DHT22;13090;53.422;7.670;2023-01-16T16:59:29;6.80;92.80
25108;DHT22;13090;53.422;7.670;2023-01-16T17:04:31;6.70;92.90
25108;DHT22;13090;53.422;7.670;2023-01-16T17:09:35;6.70;92.80
25108;DHT22;13090;53.422;7.670;2023-01-16T17:14:37;6.80;92.90
25108;DHT22;13090;53.422;7.670;2023-01-16T17:19:41;6.70;92.90
25108;DHT22;13090;53.422;7.670;2023-01-16T17:24:45;6.70;92.90
25108;DHT22;13090;53.422;7.670;2023-01-16T17:29:48;6.80;92.90
25108;DHT22;13090;53.422;7.670;2023-01-16T17:34:50;6.70;92.90
25108;DHT22;13090;53.422;7.670;2023-01-16T17:39:53;6.70;92.90
25108;DHT22;13090;53.422;7.670;2023-01-16T17:44:56;6.70;92.90
25108;DHT22;13090;53.422;7.670;2023-01-16T17:49:58;6.70;92.90
25108;DHT22;13090;53.422;7.670;2023-01-16T17:55:02;6.70;92.90
25108;DHT22;13090;53.422;7.670;2023-01-16T18:00:06;6.70;92.80
25108;DHT22;13090;53.422;7.670;2023-01-16T18:05:08;6.70;92.80
25108;DHT22;13090;53.422;7.670;2023-01-16T18:10:12;6.70;92.80
25108;DHT22;13090;53.422;7.670;2023-01-16T18:15:15;6.70;92.80
25108;DHT22;13090;53.422;7.670;2023-01-16T18:20:17;6.70;92.80
25108;DHT22;13090;53.422;7.670;2023-01-16T18:25:21;6.70;92.80
25108;DHT22;13090;53.422;7.670;2023-01-16T18:30:24;6.70;92.80
25108;DHT22;13090;53.422;7.670;2023-01-16T18:35:28;6.70;92.80
25108;DHT22;13090;53.422;7.670;2023-01-16T18:40:34;6.70;92.80
25108;DHT22;13090;53.422;7.670;2023-01-16T18:45:36;6.60;92.80
25108;DHT22;13090;53.422;7.670;2023-01-16T18:50:39;6.60;92.90
25108;DHT22;13090;53.422;7.670;2023-01-16T18:55:43;6.60;92.90
25108;DHT22;13090;53.422;7.670;2023-01-16T19:00:47;6.60;92.90
25108;DHT22;13090;53.422;7.670;2023-01-16T19:05:50;6.60;92.90
25108;DHT22;13090;53.422;7.670;2023-01-16T19:10:56;6.60;92.90
25108;DHT22;13090;53.422;7.670;2023-01-16T19:15:59;6.60;92.80
25108;DHT22;13090;53.422;7.670;2023-01-16T19:21:02;6.60;92.80
25108;DHT22;13090;53.422;7.670;2023-01-16T19:26:06;6.70;92.90
25108;DHT22;13090;53.422;7.670;2023-01-16T19:31:09;6.70;92.80
25108;DHT22;13090;53.422;7.670;2023-01-16T19:36:11;6.70;92.70
25108;DHT22;13090;53.422;7.670;2023-01-16T19:41:15;6.60;92.60
25108;DHT22;13090;53.422;7.670;2023-01-16T19:46:17;6.60;92.60
25108;DHT22;13090;53.422;7.670;2023-01-16T19:51:19;6.50;92.60
25108;DHT22;13090;53.422;7.670;2023-01-16T19:56:23;6.50;92.60
25108;DHT22;13090;53.422;7.670;2023-01-16T20:01:25;6.40;92.60
25108;DHT22;13090;53.422;7.670;2023-01-16T20:06:27;6.50;92.70
25108;DHT22;13090;53.422;7.670;2023-01-16T20:11:31;6.40;92.70
25108;DHT22;13090;53.422;7.670;2023-01-16T20:16:33;6.50;92.80
25108;DHT22;13090;53.422;7.670;2023-01-16T20:21:36;6.50;92.80
25108;DHT22;13090;53.422;7.670;2023-01-16T20:26:41;6.50;92.80
25108;DHT22;13090;53.422;7.670;2023-01-16T20:31:44;6.50;92.80
25108;DHT22;13090;53.422;7.670;2023-01-16T20:36:46;6.50;92.80
25108;DHT22;13090;53.422;7.670;2023-01-16T20:41:52;6.50;92.90
25108;DHT22;13090;53.422;7.670;2023-01-16T20:46:54;6.50;92.90
25108;DHT22;13090;53.422;7.670;2023-01-16T20:51:59;6.50;92.90
25108;DHT22;13090;53.422;7.670;2023-01-16T20:57:03;6.50;92.90
25108;DHT22;13090;53.422;7.670;2023-01-16T21:02:05;6.50;92.90
25108;DHT22;13090;53.422;7.670;2023-01-16T21:07:07;6.50;92.90
25108;DHT22;13090;53.422;7.670;2023-01-16T21:12:13;6.60;92.90
25108;DHT22;13090;53.422;7.670;2023-01-16T21:17:15;6.60;92.90
25108;DHT22;13090;53.422;7.670;2023-01-16T21:22:21;6.50;92.90
25108;DHT22;13090;53.422;7.670;2023-01-16T21:27:25;6.60;92.90
25108;DHT22;13090;53.422;7.670;2023-01-16T21:32:29;6.60;92.90
25108;DHT22;13090;53.422;7.670;2023-01-16T21:37:32;6.60;92.90
25108;DHT22;13090;53.422;7.670;2023-01-16T21:42:35;6.50;92.90
25108;DHT22;13090;53.422;7.670;2023-01-16T21:47:38;6.60;92.90
25108;DHT22;13090;53.422;7.670;2023-01-16T21:52:40;6.60;92.90
25108;DHT22;13090;53.422;7.670;2023-01-16T21:57:43;6.60;92.90
25108;DHT22;13090;53.422;7.670;2023-01-16T22:02:46;6.60;92.90
25108;DHT22;13090;53.422;7.670;2023-01-16T22:07:48;6.60;93.00
25108;DHT22;13090;53.422;7.670;2023-01-16T22:12:52;6.60;92.90
25108;DHT22;13090;53.422;7.670;2023-01-16T22:17:56;6.60;93.00
25108;DHT22;13090;53.422;7.670;2023-01-16T22:22:59;6.60;92.90
25108;DHT22;13090;53.422;7.670;2023-01-16T22:28:11;6.60;92.90
25108;DHT22;13090;53.422;7.670;2023-01-16T22:33:17;6.60;93.00
25108;DHT22;13090;53.422;7.670;2023-01-16T22:38:23;6.60;92.90
25108;DHT22;13090;53.422;7.670;2023-01-16T22:43:27;6.70;93.00
25108;DHT22;13090;53.422;7.670;2023-01-16T22:48:29;6.60;93.00
25108;DHT22;13090;53.422;7.670;2023-01-16T22:53:31;6.70;93.00
25108;DHT22;13090;53.422;7.670;2023-01-16T22:58:35;6.70;93.00
25108;DHT22;13090;53.422;7.670;2023-01-16T23:03:37;6.70;93.00
25108;DHT22;13090;53.422;7.670;2023-01-16T23:08:40;6.70;93.00
25108;DHT22;13090;53.422;7.670;2023-01-16T23:13:43;6.70;93.00
25108;DHT22;13090;53.422;7.670;2023-01-16T23:18:46;6.70;93.00
25108;DHT22;13090;53.422;7.670;2023-01-16T23:23:49;6.70;93.00
25108;DHT22;13090;53.422;7.670;2023-01-16T23:28:54;6.70;93.30
25108;DHT22;13090;53.422;7.670;2023-01-16T23:33:56;6.80;93.10
25108;DHT22;13090;53.422;7.670;2023-01-16T23:38:59;6.80;93.10
25108;DHT22;13090;53.422;7.670;2023-01-16T23:44:03;6.80;93.10
25108;DHT22;13090;53.422;7.670;2023-01-16T23:49:05;6.80;93.10
25108;DHT22;13090;53.422;7.670;2023-01-16T23:54:07;6.80;93.10
25108;DHT22;13090;53.422;7.670;2023-01-16T23:59:11;6.90;93.10
